Time;durP1;ratioP1;P1;durP2;ratioP2;P2;SDS_P1;SDS_P2;PMS_P1;PMS_P2;Temp;Humidity;BMP_temperature;BMP_pressure;BME280_temperature;BME280_humidity;BME280_pressure;Samples;Min_cycle;Max_cycle;Signal;HPM_P1;HPM_P2
2023/01/25 00:00:41;;;;;;;7.90;5.10;;;;;;;4.57;60.34;102376.34;5029854;28;20040;-80
2023/01/25 00:03:06;;;;;;;10.65;5.10;;;;;;;4.53;60.54;102371.13;5030178;28;20546;-81
2023/01/25 00:05:32;;;;;;;7.38;4.93;;;;;;;4.54;60.48;102370.22;5029851;28;20426;-80
2023/01/25 00:07:57;;;;;;;9.80;4.95;;;;;;;4.52;60.58;102372.06;5035320;28;20032;-82
2023/01/25 00:10:23;;;;;;;12.10;5.72;;;;;;;4.40;60.34;102367.97;5045006;28;20036;-82
2023/01/25 00:12:48;;;;;;;6.90;4.85;;;;;;;4.52;59.54;102372.06;5037766;28;20060;-81
2023/01/25 00:15:14;;;;;;;11.68;4.85;;;;;;;4.40;60.07;102373.31;5029845;28;20022;-82
2023/01/25 00:17:39;;;;;;;7.53;5.30;;;;;;;4.48;59.67;102365.06;5030017;28;20045;-80
2023/01/25 00:20:05;;;;;;;15.75;6.43;;;;;;;4.42;59.64;102363.47;5031125;28;20105;-81
2023/01/25 00:22:31;;;;;;;8.55;5.00;;;;;;;4.38;59.59;102354.69;5029052;28;20043;-81
2023/01/25 00:24:56;;;;;;;10.60;5.15;;;;;;;4.48;59.32;102341.09;5000539;28;20412;-81
2023/01/25 00:27:21;;;;;;;10.43;5.47;;;;;;;4.52;59.19;102334.78;5010192;28;20040;-81
2023/01/25 00:29:47;;;;;;;17.67;6.43;;;;;;;4.73;59.04;102353.69;5029347;28;20397;-81
2023/01/25 00:32:12;;;;;;;9.35;5.00;;;;;;;4.74;58.68;102349.22;5029662;28;20473;-81
2023/01/25 00:34:44;;;;;;;13.02;6.70;;;;;;;4.74;57.88;102338.56;5018335;28;20021;-81
2023/01/25 00:37:32;;;;;;;11.50;5.85;;;;;;;4.77;57.57;102336.66;5030470;28;20030;-81
2023/01/25 00:39:58;;;;;;;10.57;5.35;;;;;;;4.53;57.68;102324.06;5014805;28;20042;-82
2023/01/25 00:42:23;;;;;;;10.25;6.15;;;;;;;4.73;57.79;102328.81;5010610;28;20041;-82
2023/01/25 00:44:49;;;;;;;9.68;5.53;;;;;;;4.86;57.55;102330.19;5010041;28;20050;-81
2023/01/25 00:47:15;;;;;;;8.10;5.53;;;;;;;4.95;57.08;102340.56;5014696;28;20121;-81
2023/01/25 00:49:43;;;;;;;12.55;6.53;;;;;;;4.85;56.57;102344.44;5032861;28;20116;-80
2023/01/25 00:52:09;;;;;;;9.27;5.38;;;;;;;4.85;56.26;102345.31;5034230;28;20032;-80
2023/01/25 00:54:34;;;;;;;8.23;5.03;;;;;;;4.77;55.87;102335.81;5044849;28;20033;-81
2023/01/25 00:57:00;;;;;;;8.90;5.15;;;;;;;4.67;55.42;102339.66;5038665;28;20040;-82
2023/01/25 00:59:25;;;;;;;11.00;6.57;;;;;;;4.56;55.81;102341.75;5036997;28;20754;-82
2023/01/25 01:01:52;;;;;;;10.95;6.93;;;;;;;4.60;54.78;102343.41;5035002;28;20052;-81
2023/01/25 01:04:18;;;;;;;10.95;6.13;;;;;;;4.49;54.36;102345.53;5034572;28;20025;-82
2023/01/25 01:06:44;;;;;;;9.98;6.38;;;;;;;4.36;54.57;102342.34;5030364;28;20045;-81
2023/01/25 01:09:13;;;;;;;10.73;6.22;;;;;;;4.29;54.99;102333.63;5033861;28;20036;-81
2023/01/25 01:11:38;;;;;;;12.68;7.47;;;;;;;4.23;54.82;102317.84;5038416;28;20021;-80
2023/01/25 01:14:04;;;;;;;9.30;6.03;;;;;;;4.14;55.32;102327.88;5035322;28;20029;-80
2023/01/25 01:16:29;;;;;;;9.73;6.75;;;;;;;4.21;54.88;102319.69;5032639;28;20022;-80
2023/01/25 01:18:55;;;;;;;12.32;6.80;;;;;;;4.16;55.30;102321.56;5028535;28;20091;-82
2023/01/25 01:21:20;;;;;;;11.50;6.85;;;;;;;4.13;55.32;102310.13;5013032;28;20033;-81
2023/01/25 01:23:46;;;;;;;31.65;13.70;;;;;;;4.15;55.28;102322.50;5020380;28;20112;-81
2023/01/25 01:26:13;;;;;;;13.27;6.93;;;;;;;4.13;55.43;102324.31;5032139;28;20021;-81
2023/01/25 01:28:40;;;;;;;13.10;7.03;;;;;;;4.24;54.94;102303.59;5032335;28;20038;-80
2023/01/25 01:31:08;;;;;;;13.55;7.20;;;;;;;4.23;54.53;102312.50;5028024;28;20041;-81
2023/01/25 01:33:33;;;;;;;14.43;7.60;;;;;;;4.16;55.01;102321.56;5012410;28;20022;-82
2023/01/25 01:36:06;;;;;;;11.73;6.97;;;;;;;3.97;55.57;102324.81;5029556;28;20413;-82
2023/01/25 01:38:32;;;;;;;11.68;7.07;;;;;;;3.98;55.60;102300.78;5013281;28;20419;-82
2023/01/25 01:40:57;;;;;;;12.05;7.35;;;;;;;4.21;55.69;102318.78;5031716;28;20033;-81
2023/01/25 01:43:23;;;;;;;13.60;7.63;;;;;;;4.28;55.56;102310.56;5029298;28;20127;-81
2023/01/25 01:45:56;;;;;;;12.95;7.20;;;;;;;4.25;55.00;102313.31;5012554;28;20104;-81
2023/01/25 01:48:46;;;;;;;14.82;7.95;;;;;;;4.21;55.59;102308.16;5011726;28;20030;-82
2023/01/25 01:51:22;;;;;;;15.20;8.77;;;;;;;4.05;55.93;102301.50;5012077;28;20081;-83
2023/01/25 01:53:53;;;;;;;16.67;7.68;;;;;;;4.12;55.85;102289.75;5011545;28;20026;-82
2023/01/25 01:56:24;;;;;;;13.13;8.27;;;;;;;4.16;55.63;102289.63;5011633;28;20026;-82
2023/01/25 01:58:54;;;;;;;13.75;8.68;;;;;;;4.15;55.61;102306.53;5017268;28;20049;-81
2023/01/25 02:01:20;;;;;;;14.32;8.93;;;;;;;4.03;56.11;102282.91;5031622;28;20064;-81
2023/01/25 02:03:47;;;;;;;15.23;8.85;;;;;;;4.10;56.54;102295.13;5031861;28;20037;-81
2023/01/25 02:06:39;;;;;;;14.45;8.27;;;;;;;4.18;56.61;102300.25;5031540;28;20025;-81
2023/01/25 02:09:05;;;;;;;20.50;9.77;;;;;;;4.08;56.15;102286.31;5027305;28;20087;-81
2023/01/25 02:11:32;;;;;;;17.52;9.32;;;;;;;4.03;56.70;102303.34;5039816;28;20033;-82
2023/01/25 02:13:59;;;;;;;15.25;9.80;;;;;;;4.10;56.76;102296.91;5036927;28;20155;-81
2023/01/25 02:16:27;;;;;;;20.17;9.25;;;;;;;4.13;56.56;102284.38;5015536;28;20029;-80
2023/01/25 02:18:55;;;;;;;15.73;9.25;;;;;;;4.24;56.64;102295.63;5011582;28;20037;-80
2023/01/25 02:21:23;;;;;;;15.63;9.18;;;;;;;4.14;56.52;102280.81;5011530;28;20022;-81
2023/01/25 02:24:09;;;;;;;17.73;9.82;;;;;;;4.05;57.01;102290.84;5010929;28;20030;-82
2023/01/25 02:26:36;;;;;;;18.92;10.00;;;;;;;4.06;56.85;102282.84;5022815;28;20465;-81
2023/01/25 02:29:05;;;;;;;17.90;10.90;;;;;;;4.03;57.42;102277.59;5030908;28;20162;-82
2023/01/25 02:31:30;;;;;;;17.23;9.35;;;;;;;4.04;57.21;102283.75;5030817;28;20021;-82
2023/01/25 02:33:56;;;;;;;19.58;10.73;;;;;;;4.04;57.36;102271.34;5030466;28;20491;-82
2023/01/25 02:36:33;;;;;;;18.13;10.77;;;;;;;4.04;57.47;102283.75;5015934;28;20041;-82
2023/01/25 02:39:04;;;;;;;21.50;11.93;;;;;;;4.00;57.30;102277.69;5011536;28;20033;-81
2023/01/25 02:41:42;;;;;;;24.33;12.88;;;;;;;4.00;57.59;102276.81;5025749;28;20061;-81
2023/01/25 02:44:29;;;;;;;19.23;12.45;;;;;;;3.85;57.27;102264.78;5010855;28;20057;-82
2023/01/25 02:46:55;;;;;;;24.02;12.55;;;;;;;3.77;58.00;102269.44;5020424;28;20037;-82
2023/01/25 02:49:21;;;;;;;25.63;13.40;;;;;;;3.85;57.89;102272.78;5030355;28;20099;-82
2023/01/25 02:51:49;;;;;;;24.75;13.40;;;;;;;3.82;57.95;102263.06;5029113;28;20101;-80
2023/01/25 02:54:17;;;;;;;27.60;14.45;;;;;;;3.90;58.05;102278.84;5019410;28;20029;-81
2023/01/25 02:56:42;;;;;;;27.63;14.48;;;;;;;3.85;57.93;102272.78;5029937;28;20119;-82
2023/01/25 02:59:09;;;;;;;32.05;14.68;;;;;;;3.78;57.91;102266.75;5030072;28;20076;-81
2023/01/25 03:01:36;;;;;;;23.25;14.00;;;;;;;3.81;58.02;102281.75;5009187;28;20079;-81
2023/01/25 03:04:03;;;;;;;25.95;14.68;;;;;;;3.73;58.47;102273.97;4991935;28;20042;-81
2023/01/25 03:06:29;;;;;;;30.67;15.27;;;;;;;3.78;58.47;102281.84;5022665;28;20481;-82
2023/01/25 03:08:54;;;;;;;28.73;15.27;;;;;;;3.79;58.65;102272.94;5030079;28;20035;-81
2023/01/25 03:11:19;;;;;;;29.58;14.95;;;;;;;3.79;58.39;102264.97;5030731;28;20021;-82
2023/01/25 03:13:45;;;;;;;26.42;14.93;;;;;;;3.90;58.50;102276.19;5038860;28;20029;-80
2023/01/25 03:16:12;;;;;;;27.65;14.85;;;;;;;3.89;58.58;102266.44;5036228;28;20057;-81
2023/01/25 03:18:38;;;;;;;26.05;14.82;;;;;;;3.83;58.19;102263.94;5019611;28;20059;-82
2023/01/25 03:21:10;;;;;;;28.63;14.80;;;;;;;3.85;58.37;102286.94;5029943;28;20026;-83
2023/01/25 03:23:36;;;;;;;26.80;14.18;;;;;;;3.86;58.62;102290.47;5029747;28;20037;-81
2023/01/25 03:26:09;;;;;;;29.55;15.18;;;;;;;3.92;58.29;102287.66;5029803;28;20036;-81
2023/01/25 03:28:35;;;;;;;26.48;15.05;;;;;;;3.92;58.84;102284.09;5029010;28;20092;-80
2023/01/25 03:31:01;;;;;;;33.63;14.48;;;;;;;3.81;58.67;102276.44;5029955;28;20018;-81
2023/01/25 03:33:26;;;;;;;27.65;15.23;;;;;;;3.85;59.37;102288.75;5029701;28;20036;-82
2023/01/25 03:35:55;;;;;;;25.40;14.93;;;;;;;3.79;59.69;102278.28;5007774;28;20032;-81
2023/01/25 03:38:21;;;;;;;29.75;14.68;;;;;;;3.84;59.77;102287.00;5028705;28;20037;-82
2023/01/25 03:40:47;;;;;;;30.38;15.98;;;;;;;3.73;59.77;102278.44;5029753;28;20044;-81
2023/01/25 03:43:13;;;;;;;29.45;16.73;;;;;;;3.71;60.00;102280.25;5029225;28;20040;-81
2023/01/25 03:45:39;;;;;;;30.83;16.17;;;;;;;3.63;60.47;102255.63;5024857;28;20053;-81
2023/01/25 03:48:04;;;;;;;26.10;14.30;;;;;;;3.66;60.36;102267.09;5029848;28;20025;-81
2023/01/25 03:50:30;;;;;;;26.08;14.77;;;;;;;3.61;60.44;102262.78;4993254;28;20045;-81
2023/01/25 03:53:07;;;;;;;32.95;16.60;;;;;;;3.58;60.74;102277.03;5029894;28;20116;-81
2023/01/25 03:55:33;;;;;;;28.38;15.32;;;;;;;3.64;61.27;102273.38;4994595;28;20037;-81
2023/01/25 03:57:59;;;;;;;26.85;14.98;;;;;;;3.60;60.95;102261.91;5029726;28;20028;-80
2023/01/25 04:00:24;;;;;;;30.92;15.73;;;;;;;3.58;61.22;102257.53;5029662;28;20029;-81
2023/01/25 04:02:50;;;;;;;26.90;14.73;;;;;;;3.57;61.22;102277.97;5017468;28;20092;-81
2023/01/25 04:05:15;;;;;;;33.88;15.75;;;;;;;3.33;61.72;102245.81;5009654;28;20069;-81
2023/01/25 04:07:41;;;;;;;32.92;16.40;;;;;;;3.45;62.09;102266.75;5010201;28;20183;-82
2023/01/25 04:10:07;;;;;;;27.92;15.45;;;;;;;3.48;61.99;102259.59;5023815;28;20102;-81
2023/01/25 04:12:32;;;;;;;29.10;16.48;;;;;;;3.60;61.72;102271.69;5029036;28;20040;-82
2023/01/25 04:14:58;;;;;;;32.63;15.98;;;;;;;3.53;62.04;102254.13;5037922;28;20503;-81
2023/01/25 04:17:23;;;;;;;31.27;16.80;;;;;;;3.53;62.21;102280.72;5040682;28;20029;-82
2023/01/25 04:19:49;;;;;;;33.85;16.58;;;;;;;3.56;62.31;102275.31;5034979;28;20021;-80
2023/01/25 04:22:15;;;;;;;30.92;16.55;;;;;;;3.53;62.95;102262.09;5029525;28;20488;-82
2023/01/25 04:24:41;;;;;;;30.75;16.35;;;;;;;3.52;63.31;102266.56;5029074;28;20029;-82
2023/01/25 04:27:07;;;;;;;31.88;18.17;;;;;;;3.64;63.54;102276.88;5011470;28;20441;-81
2023/01/25 04:29:33;;;;;;;31.60;17.77;;;;;;;3.59;63.35;102256.63;5029644;28;20126;-82
2023/01/25 04:31:58;;;;;;;36.25;15.82;;;;;;;3.64;63.51;102278.69;5010611;28;20068;-82
2023/01/25 04:34:24;;;;;;;30.13;16.40;;;;;;;3.61;63.66;102279.59;5009016;28;20033;-82
2023/01/25 04:36:49;;;;;;;28.05;15.90;;;;;;;3.53;63.75;102270.09;5009310;28;20401;-80
2023/01/25 04:39:15;;;;;;;29.92;14.30;;;;;;;3.65;63.79;102272.41;5019611;28;20054;-82
2023/01/25 04:41:40;;;;;;;28.77;15.05;;;;;;;3.53;63.76;102249.69;5028554;28;20031;-82
2023/01/25 04:44:06;;;;;;;30.65;15.07;;;;;;;3.60;64.15;102267.25;5011299;28;20124;-81
2023/01/25 04:46:31;;;;;;;29.35;15.57;;;;;;;3.64;63.87;102262.72;5030553;28;20021;-82
2023/01/25 04:49:00;;;;;;;29.63;14.32;;;;;;;3.62;64.14;102262.75;5032574;28;20026;-80
2023/01/25 04:51:25;;;;;;;26.30;14.32;;;;;;;3.68;63.92;102256.38;5033865;28;20041;-82
2023/01/25 04:53:50;;;;;;;30.65;14.02;;;;;;;3.77;64.01;102280.06;5032143;28;20436;-78
2023/01/25 04:56:16;;;;;;;23.38;14.02;;;;;;;3.68;63.92;102272.34;5022157;28;20021;-83
2023/01/25 04:58:41;;;;;;;22.42;12.55;;;;;;;3.68;64.10;102272.34;5016223;28;20037;-80
2023/01/25 05:01:07;;;;;;;21.55;13.27;;;;;;;3.73;64.50;102265.97;5033642;28;20028;-80
2023/01/25 05:03:32;;;;;;;25.85;13.63;;;;;;;3.71;64.69;102269.59;5035880;28;20037;-81
2023/01/25 05:05:58;;;;;;;19.33;11.38;;;;;;;3.53;64.63;102265.66;5049997;28;20041;-79
2023/01/25 05:08:25;;;;;;;20.42;12.05;;;;;;;3.54;65.13;102263.88;5057608;28;20062;-80
2023/01/25 05:10:50;;;;;;;33.40;13.32;;;;;;;3.48;65.80;102274.66;5058432;28;20060;-83
2023/01/25 05:13:15;;;;;;;28.50;11.77;;;;;;;3.48;65.74;102282.66;5039803;28;20037;-80
2023/01/25 05:15:41;;;;;;;29.63;13.45;;;;;;;3.50;65.86;102270.16;5032257;28;20041;-82
2023/01/25 05:18:06;;;;;;;26.67;13.55;;;;;;;3.57;66.52;102263.78;5018292;28;20378;-82
2023/01/25 05:20:32;;;;;;;21.77;12.25;;;;;;;3.55;66.30;102268.25;5023241;28;20124;-83
2023/01/25 05:22:57;;;;;;;21.77;12.07;;;;;;;3.54;66.34;102263.88;5014633;28;20097;-78
2023/01/25 05:28:07;;;;;;;19.08;10.38;;;;;;;3.55;66.69;102262.94;5012804;28;20041;-79
2023/01/25 05:30:32;;;;;;;16.63;9.35;;;;;;;3.49;66.76;102257.78;5012530;28;20022;-80
2023/01/25 05:32:58;;;;;;;24.02;11.43;;;;;;;3.51;66.76;102267.47;5013221;28;20482;-80
2023/01/25 05:35:24;;;;;;;21.40;10.90;;;;;;;3.49;67.20;102250.66;5012631;28;20120;-80
2023/01/25 05:37:49;;;;;;;19.58;10.65;;;;;;;3.46;67.65;102250.75;5012329;28;20107;-84
2023/01/25 05:40:15;;;;;;;18.85;10.13;;;;;;;3.55;68.04;102253.16;5012300;28;20033;-79
2023/01/25 05:42:40;;;;;;;24.65;10.85;;;;;;;3.65;68.10;102254.69;5013848;28;20025;-85
2023/01/25 05:45:07;;;;;;;18.02;9.93;;;;;;;3.69;67.89;102255.47;5013078;28;20497;-78
2023/01/25 05:47:33;;;;;;;23.73;10.57;;;;;;;3.59;67.17;102249.53;5012686;28;20034;-82
2023/01/25 05:49:58;;;;;;;28.92;10.55;;;;;;;3.52;67.68;102234.63;5012315;28;20046;-80
2023/01/25 05:52:24;;;;;;;18.88;10.85;;;;;;;3.52;68.03;102247.06;5012459;28;20437;-81
2023/01/25 05:54:49;;;;;;;19.25;10.82;;;;;;;3.62;68.15;102253.88;5012407;28;20030;-82
2023/01/25 05:57:15;;;;;;;25.55;12.18;;;;;;;3.61;68.54;102246.81;5011563;28;20025;-81
2023/01/25 05:59:40;;;;;;;20.98;9.90;;;;;;;3.62;68.28;102221.97;5011344;28;20036;-81
2023/01/25 06:02:06;;;;;;;19.80;10.40;;;;;;;3.73;68.11;102251.81;5011957;28;20066;-80
2023/01/25 06:04:31;;;;;;;17.98;10.00;;;;;;;3.69;68.79;102250.16;5012640;28;20512;-81
2023/01/25 06:06:57;;;;;;;19.02;11.85;;;;;;;3.66;68.61;102240.47;5012563;28;20141;-79
2023/01/25 06:09:22;;;;;;;19.42;10.30;;;;;;;3.68;68.60;102240.41;5012564;28;20088;-82
2023/01/25 06:11:48;;;;;;;19.23;11.77;;;;;;;3.63;69.25;102234.34;5012859;28;20477;-81
2023/01/25 06:14:14;;;;;;;17.38;10.73;;;;;;;3.63;69.20;102237.91;5012620;28;20647;-80
2023/01/25 06:16:40;;;;;;;17.15;11.02;;;;;;;3.57;69.64;102239.84;5016924;28;20022;-81
2023/01/25 06:19:06;;;;;;;20.80;11.32;;;;;;;3.64;69.70;102244.09;5016377;28;20038;-81
2023/01/25 06:21:34;;;;;;;23.23;11.15;;;;;;;3.63;69.97;102242.34;5013531;28;20461;-81
2023/01/25 06:23:59;;;;;;;21.38;11.25;;;;;;;3.54;70.21;102230.16;5020458;28;20071;-81
2023/01/25 06:26:25;;;;;;;21.05;11.88;;;;;;;3.51;70.29;102242.66;5030664;28;20147;-80
2023/01/25 06:28:50;;;;;;;16.63;9.98;;;;;;;3.45;70.63;102229.53;5028403;28;20037;-81
2023/01/25 06:31:17;;;;;;;21.02;11.90;;;;;;;3.54;70.50;102235.47;5030829;28;20076;-82
2023/01/25 06:33:47;;;;;;;20.90;10.02;;;;;;;3.55;70.71;102237.22;5030611;28;20029;-84
2023/01/25 06:36:15;;;;;;;30.00;11.20;;;;;;;3.52;70.61;102210.69;5031210;28;20033;-83
2023/01/25 06:38:41;;;;;;;23.00;12.70;;;;;;;3.49;71.29;102215.22;5031189;28;20049;-82
2023/01/25 06:41:10;;;;;;;23.45;12.95;;;;;;;3.49;71.45;102228.50;4996440;28;20048;-83
2023/01/25 06:43:36;;;;;;;21.33;11.57;;;;;;;3.40;71.62;102212.81;5013051;28;20420;-83
2023/01/25 06:46:07;;;;;;;29.08;12.75;;;;;;;3.55;72.00;102231.88;5031011;28;20142;-83
2023/01/25 06:48:32;;;;;;;23.65;13.63;;;;;;;3.49;72.35;102210.78;5031487;28;20104;-83
2023/01/25 06:51:00;;;;;;;24.10;13.18;;;;;;;3.55;72.08;102225.69;5031165;28;20156;-83
2023/01/25 06:53:28;;;;;;;43.03;22.63;;;;;;;3.47;73.24;102217.06;5030918;28;20025;-83
2023/01/25 06:56:05;;;;;;;21.77;13.15;;;;;;;3.44;73.55;102230.44;5015295;28;20529;-82
2023/01/25 06:58:31;;;;;;;28.02;14.98;;;;;;;3.43;73.61;102221.56;5035220;28;20541;-83
2023/01/25 07:01:06;;;;;;;27.15;15.13;;;;;;;3.36;74.27;102211.16;5031341;28;20025;-83
2023/01/25 07:03:32;;;;;;;28.35;14.35;;;;;;;3.12;74.55;102178.13;5031063;28;20025;-85
2023/01/25 07:05:59;;;;;;;26.77;15.52;;;;;;;3.19;75.23;102191.19;5032548;28;20030;-82
2023/01/25 07:08:25;;;;;;;25.42;14.60;;;;;;;3.23;74.90;102206.16;5031925;28;20024;-85
2023/01/25 07:10:59;;;;;;;26.70;15.15;;;;;;;3.31;75.11;102200.63;5030977;28;20108;-84
2023/01/25 07:13:25;;;;;;;24.58;14.90;;;;;;;3.32;74.58;102204.16;5031374;28;20025;-81
2023/01/25 07:15:59;;;;;;;23.15;13.05;;;;;;;3.27;74.57;102196.31;5034743;28;20034;-84
2023/01/25 07:18:26;;;;;;;21.05;12.02;;;;;;;3.30;74.28;102183.78;5042526;28;20445;-83
2023/01/25 07:20:52;;;;;;;26.58;12.60;;;;;;;3.47;73.96;102203.75;5041319;28;20557;-83
2023/01/25 07:23:19;;;;;;;20.38;12.27;;;;;;;3.49;73.95;102191.28;5031047;28;20030;-83
2023/01/25 07:25:45;;;;;;;21.83;11.85;;;;;;;3.64;73.70;102214.84;5012960;28;20516;-83
2023/01/25 07:28:11;;;;;;;22.85;13.30;;;;;;;3.60;73.18;102199.84;5030527;28;20037;-83
2023/01/25 07:30:37;;;;;;;22.25;13.77;;;;;;;3.66;73.61;102205.00;5030090;28;20107;-83
2023/01/25 07:33:02;;;;;;;22.55;12.77;;;;;;;3.67;73.48;102204.09;5030100;28;20392;-84
2023/01/25 07:35:28;;;;;;;28.35;14.70;;;;;;;3.70;73.32;102196.88;5011919;28;20508;-82
2023/01/25 07:37:54;;;;;;;25.30;14.20;;;;;;;3.66;73.23;102197.03;5029893;28;20026;-85
2023/01/25 07:40:19;;;;;;;26.25;13.63;;;;;;;3.60;72.97;102182.13;5030242;28;20032;-83
2023/01/25 07:42:45;;;;;;;31.02;13.90;;;;;;;3.52;73.01;102188.53;5030107;28;20025;-83
2023/01/25 07:45:10;;;;;;;21.75;13.70;;;;;;;3.65;73.06;102211.22;5029878;28;20099;-82
2023/01/25 07:47:36;;;;;;;24.02;13.45;;;;;;;3.76;73.07;102215.34;5030010;28;20132;-84
2023/01/25 07:50:02;;;;;;;24.83;11.70;;;;;;;3.75;72.87;102192.31;5030001;28;20497;-83
2023/01/25 07:52:28;;;;;;;17.98;10.50;;;;;;;3.77;72.04;102193.13;5012238;28;20025;-83
2023/01/25 07:54:53;;;;;;;24.73;12.35;;;;;;;3.78;72.00;102207.31;5030023;28;20040;-82
2023/01/25 07:57:19;;;;;;;22.55;12.65;;;;;;;3.79;71.69;102206.41;5029803;28;20022;-82
2023/01/25 07:59:44;;;;;;;20.98;12.27;;;;;;;3.88;71.53;102214.13;5029630;28;20036;-83
2023/01/25 08:02:10;;;;;;;18.45;12.00;;;;;;;3.83;71.55;102194.75;5029636;28;20021;-84
2023/01/25 08:04:36;;;;;;;22.33;11.93;;;;;;;3.80;71.35;102184.19;5029688;28;20059;-84
2023/01/25 08:07:01;;;;;;;20.50;10.48;;;;;;;4.07;71.04;102214.47;5029891;28;20525;-82
2023/01/25 08:09:27;;;;;;;26.88;11.73;;;;;;;4.09;71.21;102218.84;5030721;28;20044;-82
2023/01/25 08:11:52;;;;;;;19.77;10.60;;;;;;;4.03;71.00;102197.72;5031465;28;20028;-83
2023/01/25 08:14:18;;;;;;;17.08;9.90;;;;;;;4.25;70.56;102212.13;5031495;28;20402;-83
2023/01/25 08:16:43;;;;;;;20.90;10.48;;;;;;;4.42;70.46;102213.41;5031819;28;20288;-82
2023/01/25 08:19:10;;;;;;;17.13;9.93;;;;;;;4.61;70.27;102222.59;5042643;28;20065;-82
2023/01/25 08:21:36;;;;;;;22.08;10.13;;;;;;;4.73;69.07;102224.88;5044076;28;20401;-82
2023/01/25 08:24:06;;;;;;;17.20;10.13;;;;;;;4.81;69.09;102230.81;5037412;28;20106;-84
2023/01/25 08:26:32;;;;;;;16.73;10.35;;;;;;;4.79;68.79;102217.56;5034870;28;20032;-81
2023/01/25 08:28:57;;;;;;;23.10;10.38;;;;;;;4.88;68.03;102216.38;5034821;28;20045;-83
2023/01/25 08:31:26;;;;;;;18.27;9.55;;;;;;;5.10;68.01;102236.09;5034028;28;20024;-83
2023/01/25 08:33:52;;;;;;;21.00;10.13;;;;;;;5.17;67.15;102218.94;5034636;28;20021;-83
2023/01/25 08:36:18;;;;;;;28.17;10.40;;;;;;;5.16;67.12;102230.56;5016738;28;20530;-82
2023/01/25 08:38:45;;;;;;;26.08;10.07;;;;;;;5.05;67.26;102226.47;5034216;28;20048;-83
2023/01/25 08:41:14;;;;;;;16.45;8.85;;;;;;;5.18;66.25;102215.34;5033833;28;20026;-85
2023/01/25 08:43:41;;;;;;;17.98;8.80;;;;;;;5.10;66.38;102220.09;5033947;28;20029;-83
2023/01/25 08:46:06;;;;;;;35.85;10.38;;;;;;;5.15;66.71;102227.91;5034452;28;20057;-83
2023/01/25 08:48:32;;;;;;;19.40;10.10;;;;;;;5.18;66.94;102226.03;5033976;28;20031;-82
2023/01/25 08:50:59;;;;;;;14.60;8.77;;;;;;;5.18;66.25;102219.81;5034349;28;20037;-83
2023/01/25 08:53:27;;;;;;;54.28;13.45;;;;;;;5.33;66.28;102216.63;5034516;28;20567;-85
2023/01/25 08:55:53;;;;;;;17.23;10.23;;;;;;;5.25;66.08;102200.03;5016462;28;20032;-84
2023/01/25 08:58:21;;;;;;;32.10;9.55;;;;;;;5.11;65.70;102219.16;5033864;28;20512;-84
2023/01/25 09:00:48;;;;;;;20.48;9.05;;;;;;;5.00;66.42;102220.44;5033531;28;20101;-83
2023/01/25 09:03:14;;;;;;;23.02;9.98;;;;;;;4.79;66.46;102211.34;5033757;28;20029;-85
2023/01/25 09:05:40;;;;;;;15.43;8.52;;;;;;;4.78;67.26;102220.25;5015600;28;20164;-84
2023/01/25 09:08:08;;;;;;;18.83;9.63;;;;;;;4.69;67.49;102199.22;5034120;28;20108;-84
2023/01/25 09:10:33;;;;;;;35.47;11.60;;;;;;;4.71;67.38;102187.59;5034038;28;20025;-84
2023/01/25 09:12:59;;;;;;;21.73;10.48;;;;;;;4.70;67.47;102185.00;5018289;28;20035;-84
2023/01/25 09:15:25;;;;;;;15.68;9.18;;;;;;;4.70;67.32;102196.53;5035223;28;20022;-84
2023/01/25 09:17:55;;;;;;;57.08;9.63;;;;;;;4.56;67.26;102181.88;5034784;28;20052;-83
2023/01/25 09:20:21;;;;;;;20.08;9.25;;;;;;;4.59;67.79;102203.09;5045796;28;20048;-84
2023/01/25 09:22:47;;;;;;;21.35;8.25;;;;;;;4.55;68.69;102201.47;5042597;28;20029;-84
2023/01/25 09:25:13;;;;;;;29.80;9.32;;;;;;;4.50;68.64;102196.25;5050039;28;20053;-85
2023/01/25 09:27:38;;;;;;;13.07;7.22;;;;;;;4.35;68.42;102170.97;5057380;28;20093;-86
2023/01/25 09:30:05;;;;;;;25.88;10.43;;;;;;;4.39;68.18;102169.97;5057257;28;20033;-84
2023/01/25 09:32:31;;;;;;;41.00;9.15;;;;;;;4.50;68.44;102179.41;5052317;28;20036;-84
2023/01/25 09:34:56;;;;;;;22.48;9.88;;;;;;;4.67;68.07;102180.63;5053418;28;20021;-84
2023/01/25 09:37:22;;;;;;;22.30;8.75;;;;;;;4.68;67.90;102176.19;5047843;28;20026;-83
2023/01/25 09:39:47;;;;;;;16.85;9.43;;;;;;;4.69;67.68;102177.91;5035234;28;20477;-85
2023/01/25 09:42:23;;;;;;;18.48;9.10;;;;;;;4.79;67.75;102164.25;5033501;28;20033;-84
2023/01/25 09:45:10;;;;;;;15.27;8.20;;;;;;;4.94;67.06;102160.19;5032657;28;20072;-83
2023/01/25 09:47:43;;;;;;;16.85;9.02;;;;;;;4.73;67.55;102152.91;5032725;28;20034;-83
2023/01/25 09:50:27;;;;;;;21.42;9.85;;;;;;;4.91;67.41;102154.97;5032528;28;20025;-84
2023/01/25 09:53:16;;;;;;;19.67;9.57;;;;;;;4.98;67.09;102153.84;5032925;28;20036;-84
2023/01/25 09:55:43;;;;;;;16.98;9.55;;;;;;;4.84;66.88;102140.97;5033146;28;20025;-83
2023/01/25 09:58:17;;;;;;;24.48;9.25;;;;;;;4.87;67.08;102147.97;5033089;28;20524;-84
2023/01/25 10:00:46;;;;;;;20.90;9.23;;;;;;;4.92;67.05;102154.03;5032512;28;20481;-85
2023/01/25 10:03:40;;;;;;;18.13;9.63;;;;;;;4.81;67.49;102129.53;5032027;28;20128;-85
2023/01/25 10:06:11;;;;;;;15.27;8.32;;;;;;;4.81;67.26;102141.06;5031892;28;20163;-83
2023/01/25 10:08:43;;;;;;;24.23;10.07;;;;;;;4.76;67.26;102132.34;5032041;28;20025;-83
2023/01/25 10:11:21;;;;;;;49.88;12.38;;;;;;;4.87;67.39;102135.53;5031785;28;20555;-85
2023/01/25 10:13:47;;;;;;;27.65;9.27;;;;;;;4.99;67.13;102128.91;5032913;28;20029;-83
2023/01/25 10:16:21;;;;;;;25.63;9.27;;;;;;;5.01;67.06;102111.06;5033157;28;20105;-82
2023/01/25 10:19:00;;;;;;;19.27;9.45;;;;;;;5.09;66.66;102133.00;5032394;28;20104;-83
2023/01/25 10:21:32;;;;;;;19.83;10.25;;;;;;;5.29;66.67;102129.66;5042156;28;20040;-83
2023/01/25 10:24:18;;;;;;;22.35;10.32;;;;;;;5.30;66.20;102102.91;5047298;28;20719;-84
2023/01/25 10:26:49;;;;;;;20.17;9.80;;;;;;;5.48;65.43;102114.69;5037154;28;20480;-84
2023/01/25 10:29:40;;;;;;;24.15;10.43;;;;;;;5.61;65.31;102117.78;5032677;28;20043;-83
2023/01/25 10:32:12;;;;;;;21.80;9.32;;;;;;;5.66;65.25;102113.13;4952709;29;20047;-84
2023/01/25 10:34:49;;;;;;;14.65;8.25;;;;;;;5.73;64.96;102112.84;4954041;29;20043;-84
2023/01/25 10:37:21;;;;;;;29.08;11.13;;;;;;;5.78;65.02;102108.22;4952423;29;20482;-83
2023/01/25 10:40:05;;;;;;;;;;;;;;;5.88;64.72;102100.75;4953748;29;20077;-82
2023/01/25 10:42:38;;;;;;;13.82;8.23;;;;;;;5.87;64.30;102099.88;4951459;29;19915;-84
2023/01/25 10:45:15;;;;;;;17.65;8.38;;;;;;;5.88;64.14;102095.41;4950870;28;20189;-83
2023/01/25 10:47:48;;;;;;;21.70;10.52;;;;;;;5.69;63.94;102068.50;4951500;29;20035;-84
2023/01/25 10:50:41;;;;;;;17.95;9.02;;;;;;;5.86;63.87;102098.16;4951642;28;20043;-83
2023/01/25 10:53:19;;;;;;;13.68;8.40;;;;;;;5.78;64.07;102083.34;4952963;29;20032;-83
2023/01/25 10:55:57;;;;;;;22.45;9.00;;;;;;;5.81;64.34;102091.22;4951448;29;21055;-83
2023/01/25 10:58:39;;;;;;;17.95;9.25;;;;;;;5.75;64.32;102084.31;4951229;29;20434;-85
2023/01/25 11:01:09;;;;;;;21.30;11.30;;;;;;;5.74;64.29;102087.03;4952228;29;20043;-82
2023/01/25 11:03:40;;;;;;;16.15;9.68;;;;;;;5.67;64.53;102074.84;4952599;28;20042;-82
2023/01/25 11:06:07;;;;;;;23.67;10.93;;;;;;;5.57;64.98;102060.97;4952058;29;20039;-82
2023/01/25 11:08:36;;;;;;;18.00;9.63;;;;;;;5.61;65.13;102065.28;4963136;28;20064;-84
2023/01/25 11:11:31;;;;;;;19.63;9.98;;;;;;;5.72;65.35;102070.22;5032930;28;20037;-85
2023/01/25 11:13:57;;;;;;;35.13;15.13;;;;;;;5.63;65.41;102052.75;5031841;28;20511;-83
2023/01/25 11:16:36;;;;;;;17.90;10.02;;;;;;;5.58;65.03;102051.19;5032305;28;20021;-83
2023/01/25 11:19:23;;;;;;;15.43;10.05;;;;;;;5.57;65.38;102054.75;5033359;28;20025;-85
2023/01/25 11:21:54;;;;;;;12.55;8.07;;;;;;;5.48;66.09;102042.66;5032855;28;20485;-83
2023/01/25 11:24:20;;;;;;;15.88;10.57;;;;;;;5.39;66.10;102035.88;5044866;28;20029;-83
2023/01/25 11:26:46;;;;;;;17.70;10.25;;;;;;;5.44;66.04;102046.38;5048145;28;20040;-83
2023/01/25 11:29:20;;;;;;;15.55;10.18;;;;;;;5.44;66.65;102033.88;5033530;28;20120;-84